Arcata Airport Arcata,Eureka US
ICAO: KACV
IATA: ACV
Category: Medium
Scheduled Services: Yes

Elevation: 221 ft
TransAlt. 18000 ft.

Airport Communications:
ASOS:118.525
SEATTLE CNTR:124.85
COAST GUARD AIR OPS:34.5
OAKLAND RDO:122.6
CTAF/UNICOM:123

KACV Zoom In..

If you have problems with the map follow the link
https://www.worldairports.se/pages/airport.php?
ICAO=KACV

Runways:

(A) RW 01 length 4501 ft width 150 ft
---- / hdg 13

(B) RW 14 length 6046 ft width 150 ft
---- / hdg 136

(C) RW 19 length 4501 ft width 150 ft
---- / hdg 193

(D) RW 32 length 6046 ft width 150 ft
ILS 109.50 / hdg 316

Location; KACV
Day. 18 / Time. 11.53 Zulu
* Altimeter: 30.21
* Temperature: 11° c. 51.8°f.
* Wind from: 140° Speed 15 kn with Gusts up to 25 kn.
Dewpoint: -01° c.
Visibility: 10 Statute Miles.
Clouds: Scattered 6000 ft.
Clouds: Overcast 11000 ft.

KACV 181153Z AUTO 14015G25KT 10SM SCT060 OVC110 11/M01 A3021 RMK AO2 SLP236 T01061006 10106 20094 58004


Wind From 140°
Speed 15 kn.

 
 
jpsmedia worldairports.se 2020   terms of use